sensor_id;sensor_type;location;lat;lon;timestamp;P1;durP1;ratioP1;P2;durP2;ratioP2
79066;SDS011;68470;50.224;14.348;2023-04-24T00:01:40;15.98;;;8.57;;
79066;SDS011;68470;50.224;14.348;2023-04-24T00:04:08;20.05;;;10.23;;
79066;SDS011;68470;50.224;14.348;2023-04-24T00:06:36;15.13;;;7.85;;
79066;SDS011;68470;50.224;14.348;2023-04-24T00:09:03;15.27;;;9.20;;
79066;SDS011;68470;50.224;14.348;2023-04-24T00:11:33;16.20;;;9.02;;
79066;SDS011;68470;50.224;14.348;2023-04-24T00:13:59;19.20;;;9.45;;
79066;SDS011;68470;50.224;14.348;2023-04-24T00:16:25;17.88;;;9.80;;
79066;SDS011;68470;50.224;14.348;2023-04-24T00:18:52;14.43;;;7.43;;
79066;SDS011;68470;50.224;14.348;2023-04-24T00:21:21;12.68;;;7.63;;
79066;SDS011;68470;50.224;14.348;2023-04-24T00:23:51;16.55;;;8.63;;
79066;SDS011;68470;50.224;14.348;2023-04-24T00:26:18;15.75;;;8.95;;
79066;SDS011;68470;50.224;14.348;2023-04-24T00:28:44;17.20;;;9.38;;
79066;SDS011;68470;50.224;14.348;2023-04-24T00:31:10;16.63;;;8.65;;
79066;SDS011;68470;50.224;14.348;2023-04-24T00:33:37;11.68;;;7.18;;
79066;SDS011;68470;50.224;14.348;2023-04-24T00:36:03;16.80;;;8.38;;
79066;SDS011;68470;50.224;14.348;2023-04-24T00:38:29;18.95;;;8.88;;
79066;SDS011;68470;50.224;14.348;2023-04-24T00:40:55;17.23;;;8.98;;
79066;SDS011;68470;50.224;14.348;2023-04-24T00:43:22;16.58;;;8.45;;
79066;SDS011;68470;50.224;14.348;2023-04-24T00:45:50;16.35;;;8.93;;
79066;SDS011;68470;50.224;14.348;2023-04-24T00:48:16;14.57;;;8.85;;
79066;SDS011;68470;50.224;14.348;2023-04-24T00:50:42;12.38;;;7.13;;
79066;SDS011;68470;50.224;14.348;2023-04-24T00:53:08;16.40;;;8.77;;
79066;SDS011;68470;50.224;14.348;2023-04-24T00:55:34;15.52;;;8.25;;
79066;SDS011;68470;50.224;14.348;2023-04-24T00:58:02;7.63;;;5.05;;
79066;SDS011;68470;50.224;14.348;2023-04-24T01:00:28;14.50;;;7.38;;
79066;SDS011;68470;50.224;14.348;2023-04-24T01:02:55;11.98;;;6.18;;
79066;SDS011;68470;50.224;14.348;2023-04-24T01:05:24;16.30;;;8.70;;
79066;SDS011;68470;50.224;14.348;2023-04-24T01:07:51;15.43;;;6.93;;
79066;SDS011;68470;50.224;14.348;2023-04-24T01:12:53;13.35;;;7.85;;
79066;SDS011;68470;50.224;14.348;2023-04-24T01:15:23;13.63;;;7.60;;
79066;SDS011;68470;50.224;14.348;2023-04-24T01:17:58;16.65;;;9.43;;
79066;SDS011;68470;50.224;14.348;2023-04-24T01:23:03;15.95;;;9.15;;
79066;SDS011;68470;50.224;14.348;2023-04-24T01:25:40;16.80;;;8.68;;
79066;SDS011;68470;50.224;14.348;2023-04-24T01:28:08;17.42;;;8.35;;
79066;SDS011;68470;50.224;14.348;2023-04-24T01:30:54;16.00;;;8.95;;
79066;SDS011;68470;50.224;14.348;2023-04-24T01:33:22;16.58;;;8.77;;
79066;SDS011;68470;50.224;14.348;2023-04-24T01:38:24;18.88;;;9.23;;
79066;SDS011;68470;50.224;14.348;2023-04-24T01:43:25;18.15;;;11.98;;
79066;SDS011;68470;50.224;14.348;2023-04-24T01:45:52;18.75;;;11.23;;
79066;SDS011;68470;50.224;14.348;2023-04-24T01:48:17;18.67;;;10.30;;
79066;SDS011;68470;50.224;14.348;2023-04-24T01:50:43;12.35;;;7.47;;
79066;SDS011;68470;50.224;14.348;2023-04-24T01:53:09;9.88;;;5.00;;
79066;SDS011;68470;50.224;14.348;2023-04-24T01:55:35;8.55;;;5.75;;
79066;SDS011;68470;50.224;14.348;2023-04-24T01:58:01;13.05;;;6.07;;
79066;SDS011;68470;50.224;14.348;2023-04-24T02:00:27;8.40;;;4.50;;
79066;SDS011;68470;50.224;14.348;2023-04-24T02:02:53;7.40;;;4.28;;
79066;SDS011;68470;50.224;14.348;2023-04-24T02:05:19;5.90;;;2.90;;
79066;SDS011;68470;50.224;14.348;2023-04-24T02:07:44;4.40;;;2.30;;
79066;SDS011;68470;50.224;14.348;2023-04-24T02:10:10;6.47;;;3.50;;
79066;SDS011;68470;50.224;14.348;2023-04-24T02:12:37;5.32;;;2.70;;
79066;SDS011;68470;50.224;14.348;2023-04-24T02:15:03;5.47;;;3.08;;
79066;SDS011;68470;50.224;14.348;2023-04-24T02:17:29;5.97;;;3.17;;
79066;SDS011;68470;50.224;14.348;2023-04-24T02:19:56;6.13;;;3.67;;
79066;SDS011;68470;50.224;14.348;2023-04-24T02:22:21;7.63;;;3.92;;
79066;SDS011;68470;50.224;14.348;2023-04-24T02:24:47;10.10;;;6.43;;
79066;SDS011;68470;50.224;14.348;2023-04-24T02:27:14;11.52;;;5.25;;
79066;SDS011;68470;50.224;14.348;2023-04-24T02:29:40;8.27;;;5.28;;
79066;SDS011;68470;50.224;14.348;2023-04-24T02:32:06;8.95;;;5.18;;
79066;SDS011;68470;50.224;14.348;2023-04-24T02:34:32;6.45;;;3.88;;
79066;SDS011;68470;50.224;14.348;2023-04-24T02:36:57;6.20;;;4.20;;
79066;SDS011;68470;50.224;14.348;2023-04-24T02:39:23;4.75;;;2.95;;
79066;SDS011;68470;50.224;14.348;2023-04-24T02:41:49;6.50;;;3.35;;
79066;SDS011;68470;50.224;14.348;2023-04-24T02:44:15;10.43;;;5.40;;
79066;SDS011;68470;50.224;14.348;2023-04-24T02:46:40;9.65;;;5.28;;
79066;SDS011;68470;50.224;14.348;2023-04-24T02:49:07;6.63;;;3.40;;
79066;SDS011;68470;50.224;14.348;2023-04-24T02:51:33;4.05;;;2.70;;
79066;SDS011;68470;50.224;14.348;2023-04-24T02:53:58;3.40;;;1.95;;
79066;SDS011;68470;50.224;14.348;2023-04-24T02:56:25;4.70;;;2.10;;
79066;SDS011;68470;50.224;14.348;2023-04-24T02:58:51;2.83;;;1.73;;
79066;SDS011;68470;50.224;14.348;2023-04-24T03:01:16;2.70;;;1.50;;
79066;SDS011;68470;50.224;14.348;2023-04-24T03:03:43;3.83;;;2.40;;
79066;SDS011;68470;50.224;14.348;2023-04-24T03:06:09;3.55;;;2.20;;
79066;SDS011;68470;50.224;14.348;2023-04-24T03:08:35;6.15;;;2.67;;
79066;SDS011;68470;50.224;14.348;2023-04-24T03:11:01;5.93;;;3.40;;
79066;SDS011;68470;50.224;14.348;2023-04-24T03:13:26;3.03;;;1.98;;
79066;SDS011;68470;50.224;14.348;2023-04-24T03:15:52;2.72;;;1.42;;
79066;SDS011;68470;50.224;14.348;2023-04-24T03:18:19;4.93;;;2.65;;
79066;SDS011;68470;50.224;14.348;2023-04-24T03:20:45;4.07;;;2.20;;
79066;SDS011;68470;50.224;14.348;2023-04-24T03:23:12;3.78;;;2.33;;
79066;SDS011;68470;50.224;14.348;2023-04-24T03:25:38;4.65;;;3.05;;
79066;SDS011;68470;50.224;14.348;2023-04-24T03:28:04;4.20;;;2.47;;
79066;SDS011;68470;50.224;14.348;2023-04-24T03:30:30;17.77;;;7.80;;
79066;SDS011;68470;50.224;14.348;2023-04-24T03:32:56;21.35;;;8.98;;
79066;SDS011;68470;50.224;14.348;2023-04-24T03:35:21;25.15;;;9.40;;
79066;SDS011;68470;50.224;14.348;2023-04-24T03:37:47;7.05;;;3.92;;
79066;SDS011;68470;50.224;14.348;2023-04-24T03:40:13;6.03;;;3.38;;
79066;SDS011;68470;50.224;14.348;2023-04-24T03:42:39;8.88;;;3.72;;
79066;SDS011;68470;50.224;14.348;2023-04-24T03:45:05;11.15;;;5.53;;
79066;SDS011;68470;50.224;14.348;2023-04-24T03:47:31;19.45;;;9.55;;
79066;SDS011;68470;50.224;14.348;2023-04-24T03:49:57;15.20;;;8.15;;
79066;SDS011;68470;50.224;14.348;2023-04-24T03:52:23;14.07;;;7.10;;
79066;SDS011;68470;50.224;14.348;2023-04-24T03:54:49;23.15;;;10.45;;
79066;SDS011;68470;50.224;14.348;2023-04-24T03:57:14;13.15;;;7.03;;
79066;SDS011;68470;50.224;14.348;2023-04-24T03:59:40;22.70;;;10.55;;
79066;SDS011;68470;50.224;14.348;2023-04-24T04:02:06;13.95;;;6.57;;
79066;SDS011;68470;50.224;14.348;2023-04-24T04:04:32;7.40;;;4.55;;
79066;SDS011;68470;50.224;14.348;2023-04-24T04:06:58;13.00;;;6.53;;
79066;SDS011;68470;50.224;14.348;2023-04-24T04:09:26;18.70;;;8.02;;
79066;SDS011;68470;50.224;14.348;2023-04-24T04:11:52;22.08;;;10.77;;
79066;SDS011;68470;50.224;14.348;2023-04-24T04:14:18;10.68;;;5.43;;
79066;SDS011;68470;50.224;14.348;2023-04-24T04:16:43;11.85;;;5.03;;
79066;SDS011;68470;50.224;14.348;2023-04-24T04:19:09;18.45;;;9.20;;
79066;SDS011;68470;50.224;14.348;2023-04-24T04:21:35;12.25;;;6.63;;
79066;SDS011;68470;50.224;14.348;2023-04-24T04:24:01;16.58;;;7.57;;
79066;SDS011;68470;50.224;14.348;2023-04-24T04:26:26;24.15;;;10.52;;
79066;SDS011;68470;50.224;14.348;2023-04-24T04:28:52;27.30;;;11.30;;
79066;SDS011;68470;50.224;14.348;2023-04-24T04:31:21;23.05;;;11.25;;
79066;SDS011;68470;50.224;14.348;2023-04-24T04:33:47;12.73;;;6.82;;
79066;SDS011;68470;50.224;14.348;2023-04-24T04:36:13;9.57;;;5.10;;
79066;SDS011;68470;50.224;14.348;2023-04-24T04:38:38;9.23;;;5.72;;
79066;SDS011;68470;50.224;14.348;2023-04-24T04:41:06;10.80;;;5.95;;
79066;SDS011;68470;50.224;14.348;2023-04-24T04:43:32;11.23;;;5.85;;
79066;SDS011;68470;50.224;14.348;2023-04-24T04:45:59;9.05;;;5.00;;
79066;SDS011;68470;50.224;14.348;2023-04-24T04:48:26;9.07;;;4.18;;
79066;SDS011;68470;50.224;14.348;2023-04-24T04:50:52;8.57;;;4.80;;
79066;SDS011;68470;50.224;14.348;2023-04-24T04:53:18;7.85;;;2.95;;
79066;SDS011;68470;50.224;14.348;2023-04-24T04:55:44;6.07;;;2.95;;
79066;SDS011;68470;50.224;14.348;2023-04-24T04:58:11;5.45;;;2.83;;
79066;SDS011;68470;50.224;14.348;2023-04-24T05:00:37;2.72;;;1.67;;
79066;SDS011;68470;50.224;14.348;2023-04-24T05:03:03;4.40;;;2.90;;
79066;SDS011;68470;50.224;14.348;2023-04-24T05:05:29;3.15;;;1.92;;
79066;SDS011;68470;50.224;14.348;2023-04-24T05:07:54;4.25;;;2.50;;
79066;SDS011;68470;50.224;14.348;2023-04-24T05:10:21;6.63;;;3.25;;
79066;SDS011;68470;50.224;14.348;2023-04-24T05:12:46;5.70;;;3.70;;
79066;SDS011;68470;50.224;14.348;2023-04-24T05:15:12;7.03;;;3.53;;
79066;SDS011;68470;50.224;14.348;2023-04-24T05:17:38;6.50;;;3.30;;
79066;SDS011;68470;50.224;14.348;2023-04-24T05:20:05;6.20;;;3.65;;
79066;SDS011;68470;50.224;14.348;2023-04-24T05:22:32;6.82;;;3.83;;
79066;SDS011;68470;50.224;14.348;2023-04-24T05:24:58;9.38;;;4.70;;
79066;SDS011;68470;50.224;14.348;2023-04-24T05:27:24;9.32;;;5.60;;
79066;SDS011;68470;50.224;14.348;2023-04-24T05:29:50;10.20;;;5.60;;
79066;SDS011;68470;50.224;14.348;2023-04-24T05:32:15;9.45;;;5.10;;
79066;SDS011;68470;50.224;14.348;2023-04-24T05:34:41;10.68;;;5.78;;
79066;SDS011;68470;50.224;14.348;2023-04-24T05:37:06;8.32;;;4.72;;
79066;SDS011;68470;50.224;14.348;2023-04-24T05:39:35;8.73;;;5.15;;
79066;SDS011;68470;50.224;14.348;2023-04-24T05:42:01;10.90;;;6.32;;
79066;SDS011;68470;50.224;14.348;2023-04-24T05:44:28;8.20;;;4.80;;
79066;SDS011;68470;50.224;14.348;2023-04-24T05:46:54;5.82;;;3.63;;
79066;SDS011;68470;50.224;14.348;2023-04-24T05:49:21;5.70;;;3.30;;
79066;SDS011;68470;50.224;14.348;2023-04-24T05:51:46;6.50;;;3.45;;
79066;SDS011;68470;50.224;14.348;2023-04-24T05:54:12;6.00;;;2.88;;
79066;SDS011;68470;50.224;14.348;2023-04-24T05:56:38;7.35;;;4.07;;
79066;SDS011;68470;50.224;14.348;2023-04-24T05:59:04;8.80;;;5.70;;
79066;SDS011;68470;50.224;14.348;2023-04-24T06:01:30;7.57;;;4.82;;
79066;SDS011;68470;50.224;14.348;2023-04-24T06:03:57;8.95;;;5.88;;
79066;SDS011;68470;50.224;14.348;2023-04-24T06:06:23;7.70;;;4.43;;
79066;SDS011;68470;50.224;14.348;2023-04-24T06:08:49;2.53;;;1.92;;
79066;SDS011;68470;50.224;14.348;2023-04-24T06:11:15;4.43;;;2.85;;
79066;SDS011;68470;50.224;14.348;2023-04-24T06:13:41;6.97;;;3.58;;
79066;SDS011;68470;50.224;14.348;2023-04-24T06:16:07;6.55;;;4.03;;
79066;SDS011;68470;50.224;14.348;2023-04-24T06:18:33;6.55;;;3.13;;
79066;SDS011;68470;50.224;14.348;2023-04-24T06:20:59;5.85;;;3.83;;
79066;SDS011;68470;50.224;14.348;2023-04-24T06:23:25;6.18;;;3.83;;
79066;SDS011;68470;50.224;14.348;2023-04-24T06:25:50;7.15;;;3.92;;
79066;SDS011;68470;50.224;14.348;2023-04-24T06:28:16;8.27;;;4.63;;
79066;SDS011;68470;50.224;14.348;2023-04-24T06:30:42;8.60;;;5.05;;
79066;SDS011;68470;50.224;14.348;2023-04-24T06:33:09;7.55;;;4.63;;
79066;SDS011;68470;50.224;14.348;2023-04-24T06:35:35;7.18;;;3.75;;
79066;SDS011;68470;50.224;14.348;2023-04-24T06:38:02;6.18;;;4.07;;
79066;SDS011;68470;50.224;14.348;2023-04-24T06:40:27;6.05;;;3.70;;
79066;SDS011;68470;50.224;14.348;2023-04-24T06:42:53;6.40;;;4.38;;
79066;SDS011;68470;50.224;14.348;2023-04-24T06:45:19;5.22;;;2.92;;
79066;SDS011;68470;50.224;14.348;2023-04-24T06:47:45;8.57;;;3.92;;
79066;SDS011;68470;50.224;14.348;2023-04-24T06:50:10;6.20;;;3.60;;
79066;SDS011;68470;50.224;14.348;2023-04-24T06:52:37;4.97;;;2.78;;
79066;SDS011;68470;50.224;14.348;2023-04-24T06:55:03;4.68;;;3.15;;
79066;SDS011;68470;50.224;14.348;2023-04-24T06:57:29;4.88;;;3.00;;
79066;SDS011;68470;50.224;14.348;2023-04-24T06:59:55;5.00;;;3.03;;
79066;SDS011;68470;50.224;14.348;2023-04-24T07:02:21;7.40;;;2.90;;
79066;SDS011;68470;50.224;14.348;2023-04-24T07:04:47;4.43;;;2.75;;
79066;SDS011;68470;50.224;14.348;2023-04-24T07:07:13;5.70;;;3.40;;
79066;SDS011;68470;50.224;14.348;2023-04-24T07:09:39;3.75;;;2.53;;
79066;SDS011;68470;50.224;14.348;2023-04-24T07:12:09;4.63;;;2.83;;
79066;SDS011;68470;50.224;14.348;2023-04-24T07:14:35;6.97;;;2.78;;
79066;SDS011;68470;50.224;14.348;2023-04-24T07:17:02;6.47;;;3.40;;
79066;SDS011;68470;50.224;14.348;2023-04-24T07:19:29;5.85;;;3.38;;
79066;SDS011;68470;50.224;14.348;2023-04-24T07:21:55;4.15;;;2.47;;
79066;SDS011;68470;50.224;14.348;2023-04-24T07:24:20;4.22;;;2.60;;
79066;SDS011;68470;50.224;14.348;2023-04-24T07:26:46;5.15;;;3.20;;
79066;SDS011;68470;50.224;14.348;2023-04-24T07:29:12;6.35;;;3.42;;
79066;SDS011;68470;50.224;14.348;2023-04-24T07:31:39;5.22;;;4.18;;
79066;SDS011;68470;50.224;14.348;2023-04-24T07:34:06;6.30;;;4.22;;
79066;SDS011;68470;50.224;14.348;2023-04-24T07:36:32;4.60;;;2.80;;
79066;SDS011;68470;50.224;14.348;2023-04-24T07:38:58;5.93;;;3.50;;
79066;SDS011;68470;50.224;14.348;2023-04-24T07:41:24;5.80;;;2.85;;
79066;SDS011;68470;50.224;14.348;2023-04-24T07:43:49;4.97;;;2.75;;
79066;SDS011;68470;50.224;14.348;2023-04-24T07:46:16;4.47;;;2.67;;
79066;SDS011;68470;50.224;14.348;2023-04-24T07:48:41;5.57;;;3.35;;
79066;SDS011;68470;50.224;14.348;2023-04-24T07:51:07;5.60;;;4.22;;
79066;SDS011;68470;50.224;14.348;2023-04-24T07:53:36;8.70;;;5.85;;
79066;SDS011;68470;50.224;14.348;2023-04-24T07:56:02;5.35;;;4.05;;
79066;SDS011;68470;50.224;14.348;2023-04-24T07:58:27;6.28;;;3.60;;
79066;SDS011;68470;50.224;14.348;2023-04-24T08:00:53;19.85;;;12.85;;
79066;SDS011;68470;50.224;14.348;2023-04-24T08:03:19;6.47;;;4.78;;
79066;SDS011;68470;50.224;14.348;2023-04-24T08:05:46;8.00;;;4.55;;
79066;SDS011;68470;50.224;14.348;2023-04-24T08:08:12;5.07;;;3.83;;
79066;SDS011;68470;50.224;14.348;2023-04-24T08:10:39;14.30;;;9.55;;
79066;SDS011;68470;50.224;14.348;2023-04-24T08:13:04;7.78;;;4.10;;
79066;SDS011;68470;50.224;14.348;2023-04-24T08:15:30;6.30;;;3.03;;
79066;SDS011;68470;50.224;14.348;2023-04-24T08:17:56;5.03;;;2.95;;
79066;SDS011;68470;50.224;14.348;2023-04-24T08:20:22;6.72;;;3.30;;
79066;SDS011;68470;50.224;14.348;2023-04-24T08:22:48;4.93;;;3.20;;
79066;SDS011;68470;50.224;14.348;2023-04-24T08:25:14;6.45;;;3.08;;
79066;SDS011;68470;50.224;14.348;2023-04-24T08:27:39;8.55;;;5.97;;
79066;SDS011;68470;50.224;14.348;2023-04-24T08:30:06;7.88;;;4.20;;
79066;SDS011;68470;50.224;14.348;2023-04-24T08:32:32;9.30;;;5.45;;
79066;SDS011;68470;50.224;14.348;2023-04-24T08:34:58;5.75;;;3.78;;
79066;SDS011;68470;50.224;14.348;2023-04-24T08:37:25;5.10;;;2.83;;
79066;SDS011;68470;50.224;14.348;2023-04-24T08:39:52;4.70;;;2.65;;
79066;SDS011;68470;50.224;14.348;2023-04-24T08:42:18;4.43;;;2.10;;
79066;SDS011;68470;50.224;14.348;2023-04-24T08:44:45;5.30;;;3.25;;
79066;SDS011;68470;50.224;14.348;2023-04-24T08:47:13;4.15;;;2.55;;
79066;SDS011;68470;50.224;14.348;2023-04-24T08:49:41;3.95;;;2.60;;
79066;SDS011;68470;50.224;14.348;2023-04-24T08:52:08;8.90;;;4.53;;
79066;SDS011;68470;50.224;14.348;2023-04-24T08:54:34;7.93;;;3.40;;
79066;SDS011;68470;50.224;14.348;2023-04-24T08:57:00;7.45;;;4.78;;
79066;SDS011;68470;50.224;14.348;2023-04-24T08:59:30;14.40;;;5.60;;
79066;SDS011;68470;50.224;14.348;2023-04-24T09:01:56;8.88;;;4.60;;
79066;SDS011;68470;50.224;14.348;2023-04-24T09:04:23;5.30;;;3.60;;
79066;SDS011;68470;50.224;14.348;2023-04-24T09:06:50;5.57;;;3.80;;
79066;SDS011;68470;50.224;14.348;2023-04-24T09:09:20;5.80;;;3.58;;
79066;SDS011;68470;50.224;14.348;2023-04-24T09:11:48;7.03;;;3.90;;
79066;SDS011;68470;50.224;14.348;2023-04-24T09:14:15;7.25;;;3.90;;
79066;SDS011;68470;50.224;14.348;2023-04-24T09:16:42;5.30;;;3.15;;
79066;SDS011;68470;50.224;14.348;2023-04-24T09:19:08;4.20;;;2.55;;
79066;SDS011;68470;50.224;14.348;2023-04-24T09:21:34;5.60;;;2.90;;
79066;SDS011;68470;50.224;14.348;2023-04-24T09:24:02;3.40;;;2.47;;
79066;SDS011;68470;50.224;14.348;2023-04-24T09:26:29;5.18;;;3.30;;
79066;SDS011;68470;50.224;14.348;2023-04-24T09:28:59;3.55;;;2.72;;
79066;SDS011;68470;50.224;14.348;2023-04-24T09:31:26;3.60;;;2.67;;
79066;SDS011;68470;50.224;14.348;2023-04-24T09:33:58;7.20;;;3.25;;
79066;SDS011;68470;50.224;14.348;2023-04-24T09:38:59;4.43;;;2.22;;
79066;SDS011;68470;50.224;14.348;2023-04-24T09:41:26;7.15;;;3.70;;
79066;SDS011;68470;50.224;14.348;2023-04-24T09:43:53;4.05;;;2.13;;
79066;SDS011;68470;50.224;14.348;2023-04-24T09:46:20;4.40;;;2.60;;
79066;SDS011;68470;50.224;14.348;2023-04-24T09:48:49;3.75;;;2.42;;
79066;SDS011;68470;50.224;14.348;2023-04-24T09:51:15;4.50;;;2.80;;
79066;SDS011;68470;50.224;14.348;2023-04-24T09:53:45;6.50;;;3.25;;
79066;SDS011;68470;50.224;14.348;2023-04-24T09:56:12;5.75;;;3.75;;
79066;SDS011;68470;50.224;14.348;2023-04-24T09:58:39;5.50;;;2.80;;
79066;SDS011;68470;50.224;14.348;2023-04-24T10:01:05;4.13;;;2.70;;
79066;SDS011;68470;50.224;14.348;2023-04-24T10:03:34;3.65;;;2.17;;
79066;SDS011;68470;50.224;14.348;2023-04-24T10:06:01;3.65;;;2.00;;
79066;SDS011;68470;50.224;14.348;2023-04-24T10:08:34;3.63;;;2.50;;
79066;SDS011;68470;50.224;14.348;2023-04-24T10:11:03;5.05;;;2.20;;
79066;SDS011;68470;50.224;14.348;2023-04-24T10:13:29;3.72;;;1.80;;
79066;SDS011;68470;50.224;14.348;2023-04-24T10:15:56;3.15;;;2.42;;
79066;SDS011;68470;50.224;14.348;2023-04-24T10:18:25;3.50;;;2.55;;
79066;SDS011;68470;50.224;14.348;2023-04-24T10:20:52;4.63;;;2.28;;
79066;SDS011;68470;50.224;14.348;2023-04-24T10:23:20;2.35;;;1.55;;
79066;SDS011;68470;50.224;14.348;2023-04-24T10:25:46;2.20;;;1.88;;
79066;SDS011;68470;50.224;14.348;2023-04-24T10:28:15;3.67;;;1.70;;
79066;SDS011;68470;50.224;14.348;2023-04-24T10:30:42;4.45;;;2.65;;
79066;SDS011;68470;50.224;14.348;2023-04-24T10:33:08;2.45;;;1.40;;
79066;SDS011;68470;50.224;14.348;2023-04-24T10:35:40;4.45;;;2.20;;
79066;SDS011;68470;50.224;14.348;2023-04-24T10:38:13;4.00;;;3.05;;
79066;SDS011;68470;50.224;14.348;2023-04-24T10:40:42;2.97;;;1.80;;
79066;SDS011;68470;50.224;14.348;2023-04-24T10:43:09;3.72;;;1.70;;
79066;SDS011;68470;50.224;14.348;2023-04-24T10:45:37;2.78;;;1.83;;
79066;SDS011;68470;50.224;14.348;2023-04-24T10:48:06;2.88;;;2.30;;
79066;SDS011;68470;50.224;14.348;2023-04-24T10:50:46;2.72;;;1.70;;
79066;SDS011;68470;50.224;14.348;2023-04-24T10:53:16;5.50;;;3.30;;
79066;SDS011;68470;50.224;14.348;2023-04-24T10:55:52;2.83;;;1.83;;
79066;SDS011;68470;50.224;14.348;2023-04-24T10:58:35;6.38;;;1.80;;
79066;SDS011;68470;50.224;14.348;2023-04-24T11:01:30;4.25;;;1.95;;
79066;SDS011;68470;50.224;14.348;2023-04-24T11:04:00;3.25;;;1.60;;
79066;SDS011;68470;50.224;14.348;2023-04-24T11:06:30;3.55;;;2.35;;
79066;SDS011;68470;50.224;14.348;2023-04-24T11:09:03;2.80;;;1.90;;
79066;SDS011;68470;50.224;14.348;2023-04-24T11:11:31;2.92;;;1.92;;
79066;SDS011;68470;50.224;14.348;2023-04-24T11:16:27;2.08;;;1.30;;
79066;SDS011;68470;50.224;14.348;2023-04-24T11:26:53;4.57;;;2.75;;
79066;SDS011;68470;50.224;14.348;2023-04-24T11:29:41;3.33;;;1.80;;
79066;SDS011;68470;50.224;14.348;2023-04-24T11:34:53;5.53;;;2.40;;
79066;SDS011;68470;50.224;14.348;2023-04-24T11:37:22;2.20;;;1.83;;
79066;SDS011;68470;50.224;14.348;2023-04-24T11:39:50;3.70;;;1.48;;
79066;SDS011;68470;50.224;14.348;2023-04-24T11:42:17;3.38;;;1.70;;
79066;SDS011;68470;50.224;14.348;2023-04-24T11:44:44;2.20;;;1.45;;
79066;SDS011;68470;50.224;14.348;2023-04-24T11:47:12;1.95;;;1.33;;
79066;SDS011;68470;50.224;14.348;2023-04-24T11:49:38;3.45;;;1.70;;
79066;SDS011;68470;50.224;14.348;2023-04-24T11:52:04;3.47;;;2.15;;
79066;SDS011;68470;50.224;14.348;2023-04-24T11:54:30;6.80;;;3.33;;
79066;SDS011;68470;50.224;14.348;2023-04-24T11:56:56;5.53;;;3.08;;
79066;SDS011;68470;50.224;14.348;2023-04-24T11:59:23;6.25;;;3.47;;
79066;SDS011;68470;50.224;14.348;2023-04-24T12:01:48;4.25;;;2.30;;
79066;SDS011;68470;50.224;14.348;2023-04-24T12:04:16;6.35;;;3.10;;
79066;SDS011;68470;50.224;14.348;2023-04-24T12:07:01;4.03;;;2.10;;
79066;SDS011;68470;50.224;14.348;2023-04-24T12:09:43;6.63;;;2.80;;
79066;SDS011;68470;50.224;14.348;2023-04-24T12:12:15;3.10;;;2.05;;
79066;SDS011;68470;50.224;14.348;2023-04-24T12:14:43;4.82;;;2.60;;
79066;SDS011;68470;50.224;14.348;2023-04-24T12:17:09;3.08;;;1.75;;
79066;SDS011;68470;50.224;14.348;2023-04-24T12:19:35;5.00;;;2.38;;
79066;SDS011;68470;50.224;14.348;2023-04-24T12:22:05;2.50;;;1.65;;
79066;SDS011;68470;50.224;14.348;2023-04-24T12:24:32;3.00;;;1.58;;
79066;SDS011;68470;50.224;14.348;2023-04-24T12:26:57;4.22;;;2.00;;
79066;SDS011;68470;50.224;14.348;2023-04-24T12:29:24;2.55;;;1.50;;
79066;SDS011;68470;50.224;14.348;2023-04-24T12:31:50;2.95;;;1.40;;
79066;SDS011;68470;50.224;14.348;2023-04-24T12:34:17;2.00;;;1.40;;
79066;SDS011;68470;50.224;14.348;2023-04-24T12:36:48;3.63;;;1.35;;
79066;SDS011;68470;50.224;14.348;2023-04-24T12:39:16;1.80;;;1.10;;
79066;SDS011;68470;50.224;14.348;2023-04-24T12:41:54;2.75;;;1.00;;
79066;SDS011;68470;50.224;14.348;2023-04-24T12:44:30;1.65;;;1.00;;
79066;SDS011;68470;50.224;14.348;2023-04-24T12:46:56;2.42;;;1.80;;
79066;SDS011;68470;50.224;14.348;2023-04-24T12:49:23;2.10;;;1.30;;
79066;SDS011;68470;50.224;14.348;2023-04-24T12:51:49;2.17;;;1.10;;
79066;SDS011;68470;50.224;14.348;2023-04-24T12:54:17;1.42;;;0.82;;
79066;SDS011;68470;50.224;14.348;2023-04-24T12:56:42;2.42;;;1.25;;
79066;SDS011;68470;50.224;14.348;2023-04-24T12:59:08;2.08;;;1.10;;
79066;SDS011;68470;50.224;14.348;2023-04-24T13:01:35;3.28;;;1.33;;
79066;SDS011;68470;50.224;14.348;2023-04-24T13:04:01;2.63;;;1.27;;
79066;SDS011;68470;50.224;14.348;2023-04-24T13:06:27;4.88;;;2.17;;
79066;SDS011;68470;50.224;14.348;2023-04-24T13:08:53;2.50;;;1.30;;
79066;SDS011;68470;50.224;14.348;2023-04-24T13:11:23;3.00;;;1.60;;
79066;SDS011;68470;50.224;14.348;2023-04-24T13:13:50;3.45;;;2.20;;
79066;SDS011;68470;50.224;14.348;2023-04-24T13:16:15;8.85;;;4.88;;
79066;SDS011;68470;50.224;14.348;2023-04-24T13:18:42;4.38;;;1.73;;
79066;SDS011;68470;50.224;14.348;2023-04-24T13:21:09;2.90;;;1.70;;
79066;SDS011;68470;50.224;14.348;2023-04-24T13:23:36;4.22;;;2.50;;
79066;SDS011;68470;50.224;14.348;2023-04-24T13:26:01;4.72;;;2.45;;
79066;SDS011;68470;50.224;14.348;2023-04-24T13:28:27;9.82;;;5.07;;
79066;SDS011;68470;50.224;14.348;2023-04-24T13:30:54;4.45;;;2.80;;
79066;SDS011;68470;50.224;14.348;2023-04-24T13:33:21;3.90;;;2.80;;
79066;SDS011;68470;50.224;14.348;2023-04-24T13:35:47;4.97;;;3.58;;
79066;SDS011;68470;50.224;14.348;2023-04-24T13:38:13;6.03;;;2.80;;
79066;SDS011;68470;50.224;14.348;2023-04-24T13:40:39;7.38;;;2.92;;
79066;SDS011;68470;50.224;14.348;2023-04-24T13:43:05;3.90;;;2.83;;
79066;SDS011;68470;50.224;14.348;2023-04-24T13:45:32;8.23;;;4.03;;
79066;SDS011;68470;50.224;14.348;2023-04-24T13:47:59;5.88;;;2.88;;
79066;SDS011;68470;50.224;14.348;2023-04-24T13:50:24;7.43;;;3.45;;
79066;SDS011;68470;50.224;14.348;2023-04-24T13:52:51;4.88;;;2.58;;
79066;SDS011;68470;50.224;14.348;2023-04-24T13:55:17;4.53;;;2.05;;
79066;SDS011;68470;50.224;14.348;2023-04-24T13:57:44;3.70;;;1.67;;
79066;SDS011;68470;50.224;14.348;2023-04-24T14:00:10;5.38;;;2.72;;
79066;SDS011;68470;50.224;14.348;2023-04-24T14:02:37;8.15;;;2.72;;
79066;SDS011;68470;50.224;14.348;2023-04-24T14:05:03;5.25;;;3.33;;
79066;SDS011;68470;50.224;14.348;2023-04-24T14:07:29;5.75;;;2.58;;
79066;SDS011;68470;50.224;14.348;2023-04-24T14:09:57;4.97;;;2.47;;
79066;SDS011;68470;50.224;14.348;2023-04-24T14:12:23;4.18;;;2.50;;
79066;SDS011;68470;50.224;14.348;2023-04-24T14:14:48;4.05;;;2.03;;
79066;SDS011;68470;50.224;14.348;2023-04-24T14:17:14;2.70;;;1.67;;
79066;SDS011;68470;50.224;14.348;2023-04-24T14:19:40;4.07;;;2.42;;
79066;SDS011;68470;50.224;14.348;2023-04-24T14:22:06;6.25;;;3.38;;
79066;SDS011;68470;50.224;14.348;2023-04-24T14:24:32;29.80;;;19.83;;
79066;SDS011;68470;50.224;14.348;2023-04-24T14:27:01;5.32;;;2.83;;
79066;SDS011;68470;50.224;14.348;2023-04-24T14:29:29;4.10;;;2.83;;
79066;SDS011;68470;50.224;14.348;2023-04-24T14:31:55;6.05;;;3.13;;
79066;SDS011;68470;50.224;14.348;2023-04-24T14:34:21;5.68;;;2.95;;
79066;SDS011;68470;50.224;14.348;2023-04-24T14:36:47;4.38;;;2.47;;
79066;SDS011;68470;50.224;14.348;2023-04-24T14:39:13;3.45;;;2.10;;
79066;SDS011;68470;50.224;14.348;2023-04-24T14:41:40;11.63;;;5.13;;
79066;SDS011;68470;50.224;14.348;2023-04-24T14:44:05;4.18;;;2.70;;
79066;SDS011;68470;50.224;14.348;2023-04-24T14:46:32;5.13;;;3.15;;
79066;SDS011;68470;50.224;14.348;2023-04-24T14:48:57;2.78;;;1.58;;
79066;SDS011;68470;50.224;14.348;2023-04-24T14:51:24;5.10;;;2.53;;
79066;SDS011;68470;50.224;14.348;2023-04-24T14:53:50;2.67;;;1.40;;
79066;SDS011;68470;50.224;14.348;2023-04-24T14:56:17;2.30;;;1.40;;